Flight Track Log - Related Links

Times and Time Zones

All times are in EST time to prevent confusion due to time zone crossing. See the EJA122 flight status page for this flight to view local times or setup timezone preferences in your user account.

Time Position Orientation Groundspeed Altitude Reporting Facility
EST Latitude Longitude Course Direction KTS MPH feet Rate Location/Type
Sat 12:14:55 PM 30.5844 -91.1153 49° Northeast 228 262 39,000  Level Houston Center
Sat 12:15:57 PM 30.6392 -91.1517 330° Northwest 249 287 5,900 -14,516 Descending Houston Center
Sat 12:16:59 PM 30.7050 -91.1894 334° Northwest 259 298 9,000 2,516 Climbing Houston Center
Sat 12:18:01 PM 30.7844 -91.2111 347° North 290 334 11,100 1,645 Climbing Houston Center
Sat 12:19:03 PM 30.8744 -91.2208 355° North 324 373 12,400 1,632 Climbing Houston Center
Sat 12:20:00 PM 35.9666 -83.2081 49° Northeast  Level Estimated
Sat 12:20:06 PM 30.9967 -91.2347 354° North 362 417 14,500  Level Houston Center
Sat 12:21:08 PM 31.0975 -91.2444 355° North 375 432 16,100 1,548 Climbing Houston Center
Sat 12:22:10 PM 31.1911 -91.3000 333° Northwest 377 434 17,700 1,403 Climbing Houston Center
Sat 12:23:12 PM 31.2836 -91.3617 330° Northwest 371 427 19,000 1,355 Climbing Houston Center
Sat 12:24:14 PM 31.3722 -91.4228 330° Northwest 372 428 20,500 1,500 Climbing Houston Center
Sat 12:25:16 PM 31.4781 -91.4939 330° Northwest 368 423 22,100 1,403 Climbing Houston Center
Sat 12:26:18 PM 31.5661 -91.5558 329° Northwest 370 426 23,400 1,207 Climbing Houston Center
Sat 12:28:15 PM 31.7528 -91.6836 330° Northwest 386 444 25,700 1,073 Climbing Memphis Center
Sat 12:29:17 PM 31.8461 -91.7481 330° Northwest 390 449 26,600 864 Climbing Memphis Center
Sat 12:30:27 PM 31.9603 -91.8281 329° Northwest 398 458 27,600 818 Climbing Houston Center
Sat 12:31:29 PM 32.0614 -91.8961 330° Northwest 410 472 28,400 774 Climbing Houston Center
Sat 12:33:33 PM 32.2772 -92.0486 329° Northwest 433 498 30,000 774 Climbing Houston Center
Sat 12:34:35 PM 32.3864 -92.0856 344° North 445 512 30,800 726 Climbing Fort Worth Center
Sat 12:35:37 PM 32.5150 -92.0597 10° North 470 541 31,500 774 Climbing Fort Worth Center
Sat 12:36:39 PM 32.6483 -91.9514 34° Northeast 487 560 32,400 823 Climbing Fort Worth Center
Sat 12:37:41 PM 32.7597 -91.8506 37° Northeast 486 559 33,200 724 Climbing Fort Worth Center
Sat 12:38:35 PM 32.8403 -91.7764 38° Northeast 486 559 33,800 724 Climbing Memphis Center
Sat 12:39:37 PM 32.9697 -91.6578 38° Northeast 488 562 34,600 726 Climbing Memphis Center
Sat 12:40:00 PM 32.9120 -92.4897 329° Northwest  Level FlightAware Approximate
Sat 12:40:39 PM 33.0767 -91.5592 38° Northeast 489 563 35,300  Level Memphis Center
Sat 12:41:41 PM 33.1850 -91.4611 37° Northeast 488 562 36,000 677 Climbing Memphis Center
Sat 12:42:43 PM 33.2914 -91.3628 38° Northeast 487 560 36,700 629 Climbing Memphis Center
Sat 12:43:45 PM 33.3967 -91.2639 38° Northeast 483 556 37,300 624 Climbing Memphis Center
Sat 12:44:48 PM 33.5014 -91.1669 38° Northeast 479 551 38,000 768 Climbing Memphis Center
Sat 12:45:50 PM 33.6242 -91.0506 38° Northeast 473 544 38,900 484 Climbing Memphis Center
Sat 12:46:52 PM 33.7272 -90.9550 38° Northeast 469 540 39,000 48 Climbing Memphis Center
Sat 12:47:54 PM 33.8292 -90.8589 38° Northeast 475 547 39,000  Level Memphis Center
Sat 12:48:56 PM 33.9367 -90.7575 38° Northeast 484 557 39,000  Level Memphis Center
Sat 12:49:58 PM 34.0472 -90.6531 38° Northeast 494 568 39,000  Level Memphis Center
Sat 12:51:00 PM 34.1747 -90.5317 38° Northeast 496 571 39,000  Level Memphis Center
Sat 12:52:02 PM 34.2850 -90.4269 38° Northeast 497 572 39,000  Level Memphis Center
Sat 12:53:04 PM 34.3947 -90.3214 38° Northeast 500 575 39,000  Level Memphis Center
Sat 12:54:06 PM 34.5047 -90.2153 38° Northeast 500 575 39,000  Level Memphis Center
Sat 12:55:08 PM 34.6147 -90.1103 38° Northeast 499 574 39,000  Level Memphis Center
Sat 12:56:10 PM 34.7253 -90.0033 38° Northeast 500 575 39,000  Level Memphis Center
Sat 12:57:12 PM 34.8342 -89.8992 38° Northeast 501 577 39,000  Level Memphis Center
Sat 12:58:14 PM 34.9647 -89.7692 39° Northeast 503 579 39,000  Level Memphis Center
Sat 12:59:16 PM 35.0642 -89.6708 39° Northeast 507 583 39,000  Level Memphis Center
Sat 01:00:18 PM 35.1739 -89.5622 39° Northeast 504 580 39,000  Level Memphis Center
Sat 01:01:20 PM 35.2931 -89.4225 44° Northeast 503 579 39,000  Level Memphis Center
Sat 01:02:22 PM 35.3925 -89.2922 47° Northeast 513 590 39,000  Level Memphis Center
Sat 01:03:24 PM 35.4933 -89.1625 46° Northeast 518 596 39,000  Level Memphis Center
Sat 01:04:26 PM 35.5942 -89.0311 47° Northeast 522 601 39,000  Level Memphis Center
Sat 01:05:28 PM 35.6994 -88.8936 47° Northeast 523 602 39,000  Level Memphis Center
Sat 01:06:30 PM 35.7981 -88.7633 47° Northeast 523 602 39,000  Level Memphis Center
Sat 01:07:32 PM 35.8969 -88.6331 47° Northeast 524 603 39,000  Level Memphis Center
Sat 01:08:34 PM 35.9947 -88.5031 47° Northeast 521 600 39,000  Level Memphis Center
Sat 01:09:36 PM 36.1125 -88.3469 47° Northeast 519 597 39,000  Level Memphis Center
Sat 01:10:39 PM 36.2117 -88.2147 47° Northeast 523 602 39,000  Level Memphis Center
Sat 01:11:41 PM 36.3092 -88.0842 47° Northeast 528 608 39,000  Level Memphis Center
Sat 01:12:43 PM 36.4111 -87.9472 47° Northeast 532 612 39,000  Level Memphis Center
Sat 01:13:45 PM 36.5139 -87.8092 47° Northeast 535 616 39,000  Level Memphis Center
Sat 01:14:47 PM 36.6172 -87.6692 47° Northeast 539 620 39,000  Level Memphis Center
Sat 01:15:49 PM 36.7361 -87.5067 48° Northeast 537 618 39,000  Level Memphis Center
Sat 01:16:51 PM 36.8378 -87.3656 48° Northeast 538 619 39,000  Level Memphis Center
Sat 01:17:53 PM 36.9403 -87.2242 48° Northeast 540 621 39,000  Level Memphis Center
Sat 01:18:55 PM 37.0417 -87.0844 48° Northeast 537 618 39,000  Level Memphis Center
Sat 01:19:43 PM 37.1261 -86.9700 47° Northeast 535 616 39,000  Level Indianapolis Center
Sat 01:20:45 PM 37.2253 -86.8292 48° Northeast 533 613 39,000  Level Indianapolis Center
Sat 01:21:46 PM 37.3250 -86.6889 48° Northeast 533 613 39,000  Level Indianapolis Center
Sat 01:22:48 PM 37.4250 -86.5497 48° Northeast 530 610 39,000  Level Indianapolis Center
Sat 01:23:50 PM 37.5233 -86.4100 48° Northeast 529 609 39,000 -484 Level Indianapolis Center
Sat 01:24:52 PM 37.6322 -86.2797 43° Northeast 534 615 38,000 -1,355 Descending Indianapolis Center
Sat 01:25:54 PM 37.7369 -86.1647 41° Northeast 519 597 36,200 -1,742 Descending Indianapolis Center
Sat 01:26:56 PM 37.8442 -86.0439 42° Northeast 517 595 34,400 -2,000 Descending Indianapolis Center
Sat 01:27:57 PM 37.9742 -85.8983 41° Northeast 521 600 32,100 -1,659 Descending Indianapolis Center
Sat 01:28:59 PM 38.0861 -85.7736 41° Northeast 532 612 31,000 -532 Descending Indianapolis Center
Sat 01:30:01 PM 38.1961 -85.6481 42° Northeast 532 612 31,000  Level Indianapolis Center
Sat 01:31:03 PM 38.3069 -85.5217 42° Northeast 535 616 31,000  Level Indianapolis Center
Sat 01:32:05 PM 38.4183 -85.3958 41° Northeast 534 615 31,000  Level Indianapolis Center
Sat 01:33:07 PM 38.5292 -85.2667 42° Northeast 537 618 31,000  Level Indianapolis Center
Sat 01:34:08 PM 38.6481 -85.1319 41° Northeast 535 616 31,000 -98 Level Indianapolis Center
Sat 01:35:10 PM 38.7564 -85.0042 43° Northeast 535 616 30,800 -1,500 Descending Indianapolis Center
Sat 01:36:12 PM 38.8647 -84.8803 42° Northeast 528 608 27,900 -2,758 Descending Indianapolis Center
Sat 01:37:14 PM 38.9758 -84.7525 42° Northeast 488 562 25,100 -2,098 Descending Indianapolis Center
Sat 01:38:15 PM 39.0567 -84.6264 50° Northeast 460 529 23,600 -1,659 Descending Indianapolis Center
Sat 01:39:17 PM 39.1303 -84.4967 54° Northeast 451 519 21,700 -1,742 Descending Indianapolis Center
Sat 01:40:19 PM 39.2039 -84.3647 54° Northeast 453 521 20,000 -823 Descending Indianapolis Center
Sat 01:41:21 PM 39.2886 -84.2089 55° Northeast 446 513 20,000 -49 Level Indianapolis Center
Sat 01:42:22 PM 39.3425 -84.0697 63° Northeast 437 503 19,900 -1,024 Descending Indianapolis Center
Sat 01:43:24 PM 39.3969 -83.9294 63° Northeast 437 503 17,900 -1,902 Descending Indianapolis Center
Sat 01:44:25 PM 39.4497 -83.7933 63° Northeast 429 494 16,000 -1,805 Descending Indianapolis Center
Sat 01:45:17 PM 39.4939 -83.6756 64° Northeast 398 458 14,500 -1,645 Descending Indianapolis Center
Sat 01:45:27 PM 39.4986 -83.6656 59° Northeast 405 466 14,300 -2,000 Descending Indianapolis Center
Sat 01:45:29 PM 39.5056 -83.6450 66° East 398 458 14,100 -1,672 Descending Indianapolis Center
Sat 01:46:28 PM 39.5467 -83.5372 64° Northeast 401 461 12,600 -1,881 Descending Indianapolis Center
Sat 01:46:36 PM 39.5625 -83.4972 63° Northeast 407 468 12,000 -1,548 Descending Indianapolis Center
Sat 01:47:30 PM 39.6092 -83.3878 61° Northeast 400 460 11,000 -984 Descending Indianapolis Center
Sat 01:47:37 PM 39.6208 -83.3764 37° Northeast 390 449 11,000 -885 Level Indianapolis Center
Sat 01:48:31 PM 39.6756 -83.2817 53° Northeast 385 443 10,100 -621 Descending Indianapolis Center
Sat 01:49:33 PM 39.7353 -83.1833 52° Northeast 359 413 9,800 -441 Descending Indianapolis Center
Sat 01:49:39 PM 39.7442 -83.1683 52° Northeast 343 395 9,600 -1,548 Descending Indianapolis Center
Sat 01:50:35 PM 39.7928 -83.0883 52° Northeast 342 394 8,200 -1,600 Descending Indianapolis Center
Sat 01:50:39 PM 39.8014 -83.0767 46° Northeast 314 361 8,000 -1,475 Descending Indianapolis Center
Sat 01:51:36 PM 39.8431 -83.0039 53° Northeast 305 351 6,700 -1,574 Descending Indianapolis Center
Sat 01:51:40 PM 39.8539 -82.9872 50° Northeast 284 327 6,400 -677 Descending Indianapolis Center
Sat 01:52:38 PM 39.8931 -82.9236 51° Northeast 292 336 6,000 -393 Descending Indianapolis Center
Sat 01:52:41 PM 39.9039 -82.9053 52° Northeast 286 329 6,000 -98 Level Indianapolis Center
Sat 01:53:39 PM 39.9094 -82.8269 85° East 289 333 5,900 -358 Descending Indianapolis Center
Sat 01:53:48 PM 39.9072 -82.8019 97° East 263 303 5,600 -1,645 Descending Indianapolis Center
Sat 01:54:41 PM 39.9042 -82.7194 93° East 257 296 4,200 -1,574 Descending Indianapolis Center
Sat 01:54:49 PM 39.9078 -82.7067 70° East 241 277 4,000 -1,180 Descending Indianapolis Center
Sat 01:55:42 PM 39.9517 -82.7039 North 228 262 3,000 -896 Descending Indianapolis Center
Sat 01:55:56 PM 39.9639 -82.7128 331° Northwest 202 232 3,000 -194 Level Indianapolis Center
Sat 01:56:44 PM 39.9947 -82.7456 321° Northwest 208 239 2,800 -393 Descending Indianapolis Center
Sat 01:56:57 PM 39.9953 -82.7586 273° West 154 177 2,600 -787 Descending Indianapolis Center
Sat 01:57:45 PM 39.9978 -82.7944 275° West 159 183 2,000 -689 Descending Indianapolis Center
Sat 01:57:58 PM 39.9967 -82.8108 265° West 122 140 1,900 -484 Descending Indianapolis Center
Sat 01:58:47 PM 39.9997 -82.8411 278° West 140 161 1,500 -689 Descending Indianapolis Center
Sat 01:58:59 PM 40.0008 -82.8578 275° West 125 144 1,200 -197 Descending Indianapolis Center
Sat 01:59:48 PM 40.0025 -82.8958 273° West 136 157 1,300 122 Climbing Indianapolis Center
Sat 02:01:00 PM 39.9969 -82.8922 180° South  Level Estimated

Login

Don't have an account? Register now (free) for customized features, flight alerts, and more!